createdAt,value
2023-02-17T00:01:37.534Z,9.60
2023-02-17T00:04:05.839Z,10.37
2023-02-17T00:06:35.349Z,10.93
2023-02-17T00:09:04.072Z,10.07
2023-02-17T00:11:32.220Z,9.80
2023-02-17T00:14:00.670Z,10.67
2023-02-17T00:16:29.445Z,9.97
2023-02-17T00:18:58.393Z,9.63
2023-02-17T00:21:27.889Z,10.43
2023-02-17T00:23:58.457Z,10.10
2023-02-17T00:26:26.713Z,9.80
2023-02-17T00:28:54.927Z,10.33
2023-02-17T00:31:24.263Z,10.63
2023-02-17T00:33:55.323Z,10.43
2023-02-17T00:36:23.598Z,10.50
2023-02-17T00:38:51.741Z,10.43
2023-02-17T00:41:21.287Z,10.30
2023-02-17T00:43:50.225Z,9.50
2023-02-17T00:46:19.139Z,10.17
2023-02-17T00:48:47.440Z,10.47
2023-02-17T00:51:15.733Z,10.53
2023-02-17T00:53:43.924Z,10.13
2023-02-17T00:56:12.399Z,10.50
2023-02-17T00:58:42.456Z,10.07
2023-02-17T01:01:11.337Z,9.53
2023-02-17T01:03:40.897Z,10.27
2023-02-17T01:06:09.649Z,10.23
2023-02-17T01:08:38.028Z,9.87
2023-02-17T01:11:06.247Z,10.00
2023-02-17T01:13:34.446Z,9.70
2023-02-17T01:16:04.191Z,10.10
2023-02-17T01:18:32.613Z,9.70
2023-02-17T01:21:00.744Z,9.80
2023-02-17T01:23:28.939Z,9.43
2023-02-17T01:25:57.057Z,9.77
2023-02-17T01:28:25.184Z,9.90
2023-02-17T01:30:53.370Z,9.40
2023-02-17T01:33:22.854Z,10.00
2023-02-17T01:35:51.002Z,10.70
2023-02-17T01:38:19.154Z,10.13
2023-02-17T01:40:48.130Z,10.03
2023-02-17T01:43:18.033Z,9.27
2023-02-17T01:45:49.086Z,9.87
2023-02-17T01:48:18.857Z,9.87
2023-02-17T01:50:50.157Z,9.43
2023-02-17T01:53:21.164Z,9.47
2023-02-17T01:55:49.710Z,9.30
2023-02-17T01:58:19.145Z,9.33
2023-02-17T02:00:47.301Z,9.63
2023-02-17T02:03:15.685Z,9.70
2023-02-17T02:05:44.230Z,9.43
2023-02-17T02:08:13.979Z,10.50
2023-02-17T02:10:42.122Z,9.67
2023-02-17T02:13:10.569Z,10.03
2023-02-17T02:15:41.819Z,9.57
2023-02-17T02:18:16.619Z,10.53
2023-02-17T02:21:03.482Z,9.73
2023-02-17T02:23:44.445Z,10.10
2023-02-17T02:26:34.423Z,9.40
2023-02-17T02:29:16.056Z,10.67
2023-02-17T02:31:47.117Z,10.27
2023-02-17T02:34:18.495Z,9.73
2023-02-17T02:36:47.912Z,9.67
2023-02-17T02:39:17.855Z,10.37
2023-02-17T02:41:47.425Z,9.23
2023-02-17T02:44:16.945Z,9.07
2023-02-17T02:46:45.207Z,9.33
2023-02-17T02:49:13.546Z,9.13
2023-02-17T02:51:47.805Z,9.83
2023-02-17T02:54:38.708Z,9.00
2023-02-17T02:57:14.833Z,9.83
2023-02-17T02:59:47.677Z,9.17
2023-02-17T03:02:20.121Z,9.40
2023-02-17T03:04:51.125Z,9.37
2023-02-17T03:07:22.815Z,9.13
2023-02-17T03:09:51.156Z,9.30
2023-02-17T03:12:19.527Z,8.73
2023-02-17T03:14:49.383Z,8.90
2023-02-17T03:17:17.528Z,9.13
2023-02-17T03:19:47.573Z,9.47
2023-02-17T03:22:18.274Z,8.87
2023-02-17T03:24:47.780Z,8.40
2023-02-17T03:27:15.907Z,8.33
2023-02-17T03:29:44.129Z,8.47
2023-02-17T03:32:12.327Z,8.40
2023-02-17T03:34:40.576Z,9.17
2023-02-17T03:37:08.713Z,8.43
2023-02-17T03:39:36.949Z,8.23
2023-02-17T03:42:06.449Z,8.67
2023-02-17T03:44:34.619Z,8.07
2023-02-17T03:47:02.831Z,7.57
2023-02-17T03:49:31.009Z,8.30
2023-02-17T03:51:59.418Z,8.73
2023-02-17T03:54:27.896Z,8.63
2023-02-17T03:56:56.082Z,8.87
2023-02-17T03:59:25.618Z,8.80
2023-02-17T04:01:53.790Z,9.20
2023-02-17T04:04:22.008Z,8.50
2023-02-17T04:06:50.240Z,9.30
2023-02-17T04:09:18.445Z,8.27
2023-02-17T04:11:46.593Z,9.33
2023-02-17T04:14:14.791Z,8.47
2023-02-17T04:16:44.309Z,8.87
2023-02-17T04:19:12.452Z,9.47
2023-02-17T04:21:40.612Z,9.40
2023-02-17T04:24:08.874Z,9.20
2023-02-17T04:26:37.032Z,8.87
2023-02-17T04:29:05.337Z,9.10
2023-02-17T04:31:33.596Z,8.97
2023-02-17T04:34:03.131Z,9.07
2023-02-17T04:36:31.282Z,8.70
2023-02-17T04:38:59.456Z,8.67
2023-02-17T04:41:27.630Z,8.80
2023-02-17T04:43:55.757Z,9.43
2023-02-17T04:46:23.942Z,8.23
2023-02-17T04:48:52.092Z,8.57
2023-02-17T04:51:21.595Z,8.07
2023-02-17T04:53:49.729Z,8.10
2023-02-17T04:56:17.877Z,8.60
2023-02-17T04:58:46.006Z,8.60
2023-02-17T05:01:14.173Z,7.57
2023-02-17T05:03:42.721Z,8.60
2023-02-17T05:06:10.854Z,7.70
2023-02-17T05:08:40.374Z,7.60
2023-02-17T05:11:08.539Z,7.50
2023-02-17T05:13:36.656Z,7.67
2023-02-17T05:16:05.272Z,7.70
2023-02-17T05:18:33.560Z,6.93
2023-02-17T05:21:01.748Z,7.33
2023-02-17T05:23:29.885Z,7.47
2023-02-17T05:25:59.378Z,7.10
2023-02-17T05:28:27.550Z,7.27
2023-02-17T05:30:55.674Z,6.73
2023-02-17T05:33:23.816Z,6.97
2023-02-17T05:35:51.943Z,7.70
2023-02-17T05:38:20.106Z,6.63
2023-02-17T05:40:48.246Z,7.50
2023-02-17T05:43:17.735Z,7.23
2023-02-17T05:45:45.856Z,7.40
2023-02-17T05:48:14.017Z,7.40
2023-02-17T05:50:42.206Z,7.10
2023-02-17T05:53:10.362Z,7.37
2023-02-17T05:55:38.590Z,6.90
2023-02-17T05:58:06.811Z,7.10
2023-02-17T06:00:36.325Z,7.30
2023-02-17T06:03:04.624Z,7.23
2023-02-17T06:05:32.845Z,6.70
2023-02-17T06:08:01.068Z,7.40
2023-02-17T06:10:29.203Z,6.57
2023-02-17T06:12:57.387Z,7.20
2023-02-17T06:15:25.529Z,6.80
2023-02-17T06:17:55.006Z,6.90
2023-02-17T06:20:23.238Z,6.47
2023-02-17T06:22:51.395Z,6.57
2023-02-17T06:25:19.649Z,6.23
2023-02-17T06:27:47.817Z,7.00
2023-02-17T06:30:17.548Z,6.80
2023-02-17T06:32:45.801Z,6.73
2023-02-17T06:35:15.309Z,6.87
2023-02-17T06:37:43.718Z,7.00
2023-02-17T06:40:12.642Z,6.63
2023-02-17T06:42:40.830Z,7.23
2023-02-17T06:45:09.498Z,6.83
2023-02-17T06:47:37.731Z,7.37
2023-02-17T06:50:06.202Z,6.80
2023-02-17T06:52:35.922Z,6.53
2023-02-17T06:55:04.240Z,6.97
2023-02-17T06:57:32.427Z,7.00
2023-02-17T07:00:00.670Z,7.63
2023-02-17T07:02:28.969Z,7.30
2023-02-17T07:04:57.176Z,6.87
2023-02-17T07:07:25.399Z,7.07
2023-02-17T07:09:54.939Z,7.50
2023-02-17T07:12:23.119Z,6.63
2023-02-17T07:14:51.275Z,7.77
2023-02-17T07:17:19.477Z,7.53
2023-02-17T07:19:47.668Z,7.97
2023-02-17T07:22:15.863Z,7.50
2023-02-17T07:24:44.036Z,7.20
2023-02-17T07:27:13.649Z,7.90
2023-02-17T07:29:41.790Z,8.27
2023-02-17T07:32:09.985Z,7.30
2023-02-17T07:34:38.980Z,8.20
2023-02-17T07:37:07.133Z,8.27
2023-02-17T07:39:35.719Z,7.60
2023-02-17T07:42:05.066Z,7.60
2023-02-17T07:44:34.919Z,6.90
2023-02-17T07:47:03.092Z,7.33
2023-02-17T07:49:31.279Z,6.77
2023-02-17T07:51:59.517Z,7.00
2023-02-17T07:54:27.715Z,6.70
2023-02-17T07:56:55.854Z,6.90
2023-02-17T07:59:24.023Z,6.77
2023-02-17T08:01:53.563Z,6.53
2023-02-17T08:04:21.746Z,6.77
2023-02-17T08:06:49.900Z,6.93
2023-02-17T08:09:35.915Z,7.27
2023-02-17T08:12:21.881Z,6.80
2023-02-17T08:14:50.081Z,6.90
2023-02-17T08:17:19.567Z,6.23
2023-02-17T08:19:49.195Z,6.57
2023-02-17T08:22:17.836Z,6.47
2023-02-17T08:24:46.396Z,6.63
2023-02-17T08:27:15.444Z,6.67
2023-02-17T08:29:43.906Z,6.70
2023-02-17T08:32:12.392Z,6.03
2023-02-17T08:34:41.918Z,6.37
2023-02-17T08:37:10.407Z,6.37
2023-02-17T08:39:38.744Z,6.33
2023-02-17T08:42:07.036Z,5.93
2023-02-17T08:44:37.165Z,5.90
2023-02-17T08:47:06.352Z,5.97
2023-02-17T08:49:34.890Z,6.20
2023-02-17T08:52:04.997Z,6.00
2023-02-17T08:54:33.393Z,5.57
2023-02-17T08:57:01.605Z,5.53
2023-02-17T08:59:29.822Z,5.87
2023-02-17T09:01:58.423Z,6.00
2023-02-17T09:04:26.682Z,5.40
2023-02-17T09:06:57.033Z,5.53
2023-02-17T09:09:27.743Z,4.83
2023-02-17T09:11:56.468Z,4.80
2023-02-17T09:14:24.949Z,5.00
2023-02-17T09:16:53.165Z,4.47
2023-02-17T09:19:21.486Z,5.20
2023-02-17T09:21:49.629Z,4.97
2023-02-17T09:24:18.001Z,5.00
2023-02-17T09:26:47.514Z,5.27
2023-02-17T09:29:15.766Z,5.07
2023-02-17T09:31:45.586Z,4.90
2023-02-17T09:34:13.851Z,4.77
2023-02-17T09:36:43.187Z,4.53
2023-02-17T09:39:13.765Z,4.90
2023-02-17T09:41:44.075Z,4.43
2023-02-17T09:44:19.094Z,4.00
2023-02-17T09:47:00.921Z,4.10
2023-02-17T09:49:32.882Z,4.00
2023-02-17T09:52:04.187Z,4.47
2023-02-17T09:54:37.459Z,3.80
2023-02-17T09:57:08.754Z,3.37
2023-02-17T09:59:42.093Z,3.60
2023-02-17T10:02:13.948Z,3.67
2023-02-17T10:04:44.606Z,3.40
2023-02-17T10:07:14.895Z,2.93
2023-02-17T10:09:47.548Z,3.30
2023-02-17T10:12:17.457Z,2.70
2023-02-17T10:14:48.831Z,2.80
2023-02-17T10:17:20.630Z,3.00
2023-02-17T10:19:54.241Z,2.90
2023-02-17T10:22:23.621Z,2.87
2023-02-17T10:24:51.899Z,2.90
2023-02-17T10:27:25.875Z,2.47
2023-02-17T10:30:01.335Z,2.50
2023-02-17T10:32:31.192Z,2.80
2023-02-17T10:35:13.854Z,2.50
2023-02-17T10:37:44.492Z,2.30
2023-02-17T10:40:15.995Z,2.50
2023-02-17T10:42:44.265Z,2.43
2023-02-17T10:45:17.145Z,2.40
2023-02-17T10:47:45.821Z,2.30
2023-02-17T10:50:19.505Z,2.17
2023-02-17T10:52:47.722Z,2.30
2023-02-17T10:55:23.140Z,1.73
2023-02-17T10:57:54.136Z,2.00
2023-02-17T11:00:24.128Z,1.87
2023-02-17T11:02:52.562Z,1.90
2023-02-17T11:05:25.244Z,1.70
2023-02-17T11:07:57.291Z,2.00
2023-02-17T11:10:27.977Z,1.70
2023-02-17T11:12:58.039Z,1.80
2023-02-17T11:15:30.605Z,1.73
2023-02-17T11:18:01.318Z,1.70
2023-02-17T11:20:34.725Z,1.57
2023-02-17T11:23:05.052Z,1.67
2023-02-17T11:25:34.639Z,1.70
2023-02-17T11:28:04.152Z,1.70
2023-02-17T11:30:34.844Z,1.70
2023-02-17T11:33:12.749Z,1.70
2023-02-17T11:35:49.075Z,1.80
2023-02-17T11:38:17.877Z,1.80
2023-02-17T11:40:53.783Z,1.67
2023-02-17T11:43:21.965Z,1.60
2023-02-17T11:45:55.892Z,1.50
2023-02-17T11:48:38.968Z,1.93
2023-02-17T11:51:10.401Z,1.50
2023-02-17T11:53:48.426Z,1.77
2023-02-17T11:56:18.762Z,1.90
2023-02-17T11:58:58.332Z,1.70
2023-02-17T12:01:37.511Z,1.80
2023-02-17T12:04:25.397Z,1.90
2023-02-17T12:06:59.723Z,1.80
2023-02-17T12:09:31.765Z,1.87
2023-02-17T12:12:03.108Z,2.00
2023-02-17T12:14:42.304Z,1.83
2023-02-17T12:17:16.263Z,1.80
2023-02-17T12:19:47.983Z,2.00
2023-02-17T12:22:18.631Z,1.90
2023-02-17T12:25:10.008Z,1.50
2023-02-17T12:27:45.572Z,1.90
2023-02-17T12:30:21.205Z,2.00
2023-02-17T12:32:58.235Z,1.80
2023-02-17T12:35:28.073Z,1.90
2023-02-17T12:37:59.359Z,1.87
2023-02-17T12:40:33.967Z,1.97
2023-02-17T12:43:03.277Z,1.80
2023-02-17T12:45:37.653Z,2.00
2023-02-17T12:48:08.842Z,2.10
2023-02-17T12:50:38.914Z,1.97
2023-02-17T12:53:08.445Z,1.97
2023-02-17T12:55:38.521Z,1.87
2023-02-17T12:58:09.379Z,1.90
2023-02-17T13:00:40.092Z,1.90
2023-02-17T13:03:09.829Z,2.30
2023-02-17T13:05:42.070Z,2.00
2023-02-17T13:08:12.151Z,2.80
2023-02-17T13:10:41.329Z,2.20
2023-02-17T13:13:11.906Z,2.20
2023-02-17T13:15:42.178Z,2.47
2023-02-17T13:18:15.992Z,2.00
2023-02-17T13:20:45.985Z,2.30
2023-02-17T13:23:15.015Z,2.40
2023-02-17T13:25:43.556Z,2.50
2023-02-17T13:28:18.532Z,2.40
2023-02-17T13:30:48.715Z,2.10
2023-02-17T13:33:30.076Z,2.47
2023-02-17T13:35:58.225Z,2.40
2023-02-17T13:38:30.304Z,2.50
2023-02-17T13:41:00.378Z,2.60
2023-02-17T13:43:30.562Z,2.40
2023-02-17T13:46:00.442Z,2.93
2023-02-17T13:48:30.822Z,2.67
2023-02-17T13:50:59.549Z,2.30
2023-02-17T13:53:29.611Z,2.63
2023-02-17T13:55:59.180Z,2.90
2023-02-17T13:58:28.912Z,2.20
2023-02-17T14:00:57.594Z,3.00
2023-02-17T14:03:26.899Z,2.53
2023-02-17T14:05:57.397Z,3.00
2023-02-17T14:08:31.419Z,3.13
2023-02-17T14:10:59.924Z,2.90
2023-02-17T14:13:28.113Z,3.00
2023-02-17T14:15:57.536Z,2.77
2023-02-17T14:18:33.369Z,2.50
2023-02-17T14:21:04.226Z,2.60
2023-02-17T14:23:41.897Z,2.13
2023-02-17T14:26:13.798Z,2.40
2023-02-17T14:28:42.000Z,2.30
2023-02-17T14:31:11.387Z,2.73
2023-02-17T14:33:39.802Z,2.40
2023-02-17T14:36:11.401Z,2.27
2023-02-17T14:38:42.191Z,2.50
2023-02-17T14:41:10.900Z,2.63
2023-02-17T14:43:39.230Z,2.53
2023-02-17T14:46:07.671Z,2.40
2023-02-17T14:48:35.984Z,2.67
2023-02-17T14:51:04.134Z,3.10
2023-02-17T14:53:36.348Z,2.63
2023-02-17T14:56:06.176Z,2.27
2023-02-17T14:58:35.038Z,1.90
2023-02-17T15:01:03.380Z,2.00
2023-02-17T15:03:31.544Z,1.70
2023-02-17T15:05:59.673Z,1.40
2023-02-17T15:08:31.849Z,1.60
2023-02-17T15:11:01.349Z,1.70
2023-02-17T15:13:31.625Z,1.40
2023-02-17T15:15:59.921Z,1.57
2023-02-17T15:18:28.395Z,1.50
2023-02-17T15:20:56.570Z,2.03
2023-02-17T15:23:26.278Z,1.67
2023-02-17T15:25:55.392Z,1.40
2023-02-17T15:28:24.873Z,1.63
2023-02-17T15:30:54.425Z,1.50
2023-02-17T15:33:23.432Z,1.90
2023-02-17T15:35:53.801Z,2.03
2023-02-17T15:38:22.331Z,1.67
2023-02-17T15:40:50.508Z,2.10
2023-02-17T15:43:19.848Z,2.10
2023-02-17T15:45:49.398Z,1.93
2023-02-17T15:48:22.467Z,1.67
2023-02-17T15:50:50.655Z,2.10
2023-02-17T15:53:18.821Z,1.70
2023-02-17T15:55:47.144Z,1.90
2023-02-17T15:58:16.629Z,1.87
2023-02-17T16:00:46.388Z,1.77
2023-02-17T16:03:16.023Z,1.80
2023-02-17T16:05:44.470Z,2.20
2023-02-17T16:08:12.624Z,1.80
2023-02-17T16:10:42.486Z,2.00
2023-02-17T16:13:14.262Z,1.77
2023-02-17T16:15:42.999Z,1.70
2023-02-17T16:18:16.416Z,1.87
2023-02-17T16:20:45.911Z,1.93
2023-02-17T16:23:14.053Z,1.90
2023-02-17T16:25:43.817Z,2.20
2023-02-17T16:28:16.139Z,2.27
2023-02-17T16:30:46.193Z,2.20
2023-02-17T16:33:15.010Z,2.30
2023-02-17T16:35:43.553Z,2.40
2023-02-17T16:38:16.251Z,2.70
2023-02-17T16:40:47.277Z,2.87
2023-02-17T16:43:16.322Z,2.90
2023-02-17T16:45:50.537Z,3.10
2023-02-17T16:48:18.857Z,3.37
2023-02-17T16:50:47.009Z,3.73
2023-02-17T16:53:16.554Z,3.53
2023-02-17T16:55:45.209Z,3.60
2023-02-17T16:58:15.521Z,3.70
2023-02-17T17:00:43.859Z,3.70
2023-02-17T17:03:12.051Z,3.37
2023-02-17T17:05:41.130Z,3.43
2023-02-17T17:08:09.275Z,3.20
2023-02-17T17:10:40.439Z,2.80
2023-02-17T17:13:08.946Z,3.20
2023-02-17T17:15:41.453Z,2.63
2023-02-17T17:18:12.351Z,2.83
2023-02-17T17:20:41.865Z,2.70
2023-02-17T17:23:10.806Z,3.37
2023-02-17T17:25:48.521Z,3.23
2023-02-17T17:28:17.374Z,3.20
2023-02-17T17:30:45.544Z,3.57
2023-02-17T17:33:13.696Z,3.13
2023-02-17T17:35:41.854Z,3.50
2023-02-17T17:38:11.454Z,3.80
2023-02-17T17:40:49.078Z,3.47
2023-02-17T17:43:17.361Z,4.33
2023-02-17T17:45:45.534Z,4.37
2023-02-17T17:48:14.469Z,4.67
2023-02-17T17:50:42.640Z,4.90
2023-02-17T17:53:10.904Z,5.20
2023-02-17T17:55:40.436Z,6.23
2023-02-17T17:58:08.606Z,7.47
2023-02-17T18:00:36.750Z,7.40
2023-02-17T18:03:05.093Z,8.13
2023-02-17T18:05:33.362Z,6.27
2023-02-17T18:08:02.413Z,6.60
2023-02-17T18:10:30.821Z,6.47
2023-02-17T18:13:00.438Z,5.73
2023-02-17T18:15:28.648Z,6.80
2023-02-17T18:17:56.945Z,6.53
2023-02-17T18:20:25.126Z,6.97
2023-02-17T18:22:53.337Z,7.20
2023-02-17T18:25:21.823Z,7.97
2023-02-17T18:27:50.083Z,8.57
2023-02-17T18:30:20.876Z,9.60
2023-02-17T18:32:49.312Z,6.77
2023-02-17T18:35:18.035Z,7.23
2023-02-17T18:37:46.410Z,6.53
2023-02-17T18:40:15.923Z,6.90
2023-02-17T18:42:45.411Z,6.83
2023-02-17T18:45:14.013Z,8.50
2023-02-17T18:47:43.931Z,7.00
2023-02-17T18:50:12.732Z,7.87
2023-02-17T18:52:41.362Z,7.00
2023-02-17T18:55:10.589Z,6.37
2023-02-17T18:57:39.100Z,6.33
2023-02-17T19:00:10.698Z,6.20
2023-02-17T19:02:39.217Z,6.03
2023-02-17T19:05:09.985Z,6.47
2023-02-17T19:07:38.163Z,5.83
2023-02-17T19:10:07.146Z,5.83
2023-02-17T19:12:35.493Z,6.73
2023-02-17T19:15:03.659Z,6.67
2023-02-17T19:17:31.912Z,6.70
2023-02-17T19:20:00.511Z,5.90
2023-02-17T19:22:30.013Z,6.33
2023-02-17T19:24:58.217Z,5.80
2023-02-17T19:27:26.387Z,6.23
2023-02-17T19:29:54.544Z,6.03
2023-02-17T19:32:22.733Z,5.47
2023-02-17T19:34:50.996Z,6.17
2023-02-17T19:37:19.125Z,5.97
2023-02-17T19:39:48.682Z,5.97
2023-02-17T19:42:16.834Z,5.73
2023-02-17T19:44:45.023Z,6.77
2023-02-17T19:47:13.242Z,6.10
2023-02-17T19:49:41.473Z,6.00
2023-02-17T19:52:10.122Z,5.47
2023-02-17T19:54:38.289Z,5.73
2023-02-17T19:57:07.871Z,5.33
2023-02-17T19:59:36.117Z,5.73
2023-02-17T20:02:04.404Z,4.47
2023-02-17T20:04:32.650Z,4.87
2023-02-17T20:07:00.770Z,5.23
2023-02-17T20:09:28.893Z,5.00
2023-02-17T20:11:57.031Z,4.77
2023-02-17T20:14:26.546Z,5.20
2023-02-17T20:16:56.251Z,5.13
2023-02-17T20:19:24.494Z,5.07
2023-02-17T20:21:52.645Z,5.33
2023-02-17T20:24:20.816Z,4.87
2023-02-17T20:26:50.816Z,5.00
2023-02-17T20:29:18.957Z,4.87
2023-02-17T20:31:48.570Z,5.10
2023-02-17T20:34:24.738Z,5.10
2023-02-17T20:36:52.880Z,4.60
2023-02-17T20:39:21.013Z,5.60
2023-02-17T20:41:49.210Z,5.80
2023-02-17T20:44:18.093Z,5.60
2023-02-17T20:46:46.933Z,6.40
2023-02-17T20:49:16.673Z,5.13
2023-02-17T20:51:44.858Z,5.93
2023-02-17T20:54:13.070Z,6.27
2023-02-17T20:56:41.893Z,6.77
2023-02-17T20:59:12.806Z,6.53
2023-02-17T21:01:41.090Z,6.93
2023-02-17T21:04:09.278Z,6.60
2023-02-17T21:06:41.108Z,6.77
2023-02-17T21:09:11.198Z,6.47
2023-02-17T21:11:39.715Z,5.63
2023-02-17T21:14:07.957Z,6.67
2023-02-17T21:16:36.237Z,6.63
2023-02-17T21:19:04.853Z,6.67
2023-02-17T21:21:33.378Z,6.17
2023-02-17T21:24:02.923Z,6.43
2023-02-17T21:26:31.078Z,6.53
2023-02-17T21:28:59.278Z,6.57
2023-02-17T21:31:28.850Z,6.30
2023-02-17T21:33:57.095Z,6.80
2023-02-17T21:36:26.534Z,6.63
2023-02-17T21:38:56.179Z,7.00
2023-02-17T21:41:26.453Z,7.13
2023-02-17T21:44:12.245Z,6.73
2023-02-17T21:46:42.928Z,6.93
2023-02-17T21:49:11.786Z,7.30
2023-02-17T21:51:40.716Z,8.57
2023-02-17T21:54:09.367Z,7.13
2023-02-17T21:56:38.899Z,7.87
2023-02-17T21:59:07.151Z,7.50
2023-02-17T22:01:35.337Z,7.27
2023-02-17T22:04:03.531Z,7.27
2023-02-17T22:06:32.700Z,7.47
2023-02-17T22:09:00.995Z,7.60
2023-02-17T22:11:30.139Z,7.33
2023-02-17T22:14:00.700Z,7.63
2023-02-17T22:16:30.529Z,7.47
2023-02-17T22:18:58.732Z,8.17
2023-02-17T22:21:26.993Z,7.53
2023-02-17T22:23:55.176Z,8.03
2023-02-17T22:26:24.429Z,7.97
2023-02-17T22:28:52.912Z,7.70
2023-02-17T22:31:23.426Z,8.80
2023-02-17T22:33:51.634Z,8.87
2023-02-17T22:36:20.933Z,8.83
2023-02-17T22:38:49.136Z,8.37
2023-02-17T22:41:18.452Z,8.57
2023-02-17T22:43:47.178Z,8.50
2023-02-17T22:46:18.147Z,9.07
2023-02-17T22:48:48.788Z,8.70
2023-02-17T22:51:18.429Z,8.67
2023-02-17T22:53:46.967Z,8.83
2023-02-17T22:56:16.434Z,8.80
2023-02-17T22:58:44.602Z,8.57
2023-02-17T23:01:13.595Z,9.17
2023-02-17T23:03:41.952Z,8.07
2023-02-17T23:06:13.486Z,9.03
2023-02-17T23:08:43.035Z,9.10
2023-02-17T23:11:12.515Z,8.57
2023-02-17T23:13:41.289Z,8.37
2023-02-17T23:16:11.316Z,8.43
2023-02-17T23:18:39.701Z,8.83
2023-02-17T23:21:09.475Z,8.97
2023-02-17T23:23:38.961Z,9.57
2023-02-17T23:26:07.661Z,7.83
2023-02-17T23:28:36.092Z,8.67
2023-02-17T23:31:04.470Z,8.80
2023-02-17T23:33:32.638Z,8.43
2023-02-17T23:36:00.758Z,7.90
2023-02-17T23:38:28.885Z,8.13
2023-02-17T23:40:58.585Z,8.27
2023-02-17T23:43:26.795Z,9.13
2023-02-17T23:45:56.906Z,8.43
2023-02-17T23:48:25.289Z,8.87
2023-02-17T23:50:58.033Z,8.80
2023-02-17T23:53:26.237Z,8.33
2023-02-17T23:56:03.082Z,8.63
2023-02-17T23:58:31.321Z,9.00
